Time;durP1;ratioP1;P1;durP2;ratioP2;P2;SDS_P1;SDS_P2;PMS_P1;PMS_P2;Temp;Humidity;BMP_temperature;BMP_pressure;BME280_temperature;BME280_humidity;BME280_pressure;Samples;Min_cycle;Max_cycle;Signal;HPM_P1;HPM_P2
2022/12/22 03:25:52;;;;;;;61.33;31.05;;;7.50;99.90;;;;;;5057725;28;20056;-62
2022/12/22 03:28:20;;;;;;;71.68;35.17;;;7.50;99.90;;;;;;5074351;28;20101;-63
2022/12/22 03:30:53;;;;;;;71.75;34.88;;;7.50;99.90;;;;;;5056772;28;20079;-63
2022/12/22 03:33:18;;;;;;;61.80;32.28;;;7.50;99.90;;;;;;5041116;28;20033;-62
2022/12/22 03:35:44;;;;;;;57.22;30.77;;;7.50;99.90;;;;;;5075563;28;20041;-62
2022/12/22 03:38:09;;;;;;;68.15;32.35;;;7.50;99.90;;;;;;5073605;28;20413;-62
2022/12/22 03:40:35;;;;;;;71.45;34.67;;;7.50;99.90;;;;;;5075510;28;20048;-62
2022/12/22 03:48:29;;;;;;;78.05;36.25;;;7.50;99.90;;;;;;5057532;28;20080;-62
2022/12/22 03:50:54;;;;;;;92.40;38.50;;;7.50;99.90;;;;;;5074233;28;20071;-63
2022/12/22 03:53:20;;;;;;;77.97;36.92;;;7.50;99.90;;;;;;5073980;28;20064;-63
2022/12/22 03:55:46;;;;;;;82.13;39.92;;;7.50;99.90;;;;;;5075156;28;20045;-62
2022/12/22 03:58:11;;;;;;;85.60;40.28;;;7.50;99.90;;;;;;5074248;28;20033;-63
2022/12/22 04:00:37;;;;;;;82.18;41.28;;;7.50;99.90;;;;;;5074095;28;20409;-62
2022/12/22 04:03:03;;;;;;;96.82;42.85;;;7.50;99.90;;;;;;5074066;28;20427;-63
2022/12/22 04:05:28;;;;;;;102.55;44.28;;;7.50;99.90;;;;;;5073773;28;20470;-63
2022/12/22 04:07:54;;;;;;;108.95;45.72;;;7.50;99.90;;;;;;5074707;28;20041;-62
2022/12/22 04:13:03;;;;;;;92.40;42.15;;;7.50;99.90;;;;;;5073923;28;20052;-63
2022/12/22 04:15:31;;;;;;;87.95;41.55;;;7.50;99.90;;;;;;5073656;28;20048;-63
2022/12/22 04:17:57;;;;;;;109.03;46.45;;;7.50;99.90;;;;;;5074749;28;20044;-63
2022/12/22 04:20:27;;;;;;;124.65;52.17;;;7.40;99.90;;;;;;5073974;28;20159;-62
2022/12/22 04:22:54;;;;;;;122.78;47.60;;;7.50;99.90;;;;;;5039882;28;20048;-62
2022/12/22 04:25:20;;;;;;;104.72;41.53;;;7.50;99.90;;;;;;5072315;28;20060;-63
2022/12/22 04:27:46;;;;;;;91.03;39.60;;;7.40;99.90;;;;;;5074722;28;20056;-62
2022/12/22 04:30:13;;;;;;;107.32;43.97;;;7.50;99.90;;;;;;5039962;28;20066;-62
2022/12/22 04:32:39;;;;;;;106.32;45.15;;;7.40;99.90;;;;;;5074075;28;20037;-63
2022/12/22 04:35:06;;;;;;;113.15;48.10;;;7.40;99.90;;;;;;5056468;28;20550;-62
2022/12/22 04:37:31;;;;;;;80.53;39.15;;;7.40;99.90;;;;;;5073098;28;20493;-62
2022/12/22 04:39:57;;;;;;;96.05;43.67;;;7.40;99.90;;;;;;5072401;28;20062;-63
2022/12/22 04:42:23;;;;;;;103.72;46.20;;;7.40;99.90;;;;;;5074474;28;20040;-62
2022/12/22 04:44:49;;;;;;;135.32;52.28;;;7.40;99.90;;;;;;5072899;28;20043;-62
2022/12/22 04:47:15;;;;;;;98.25;45.50;;;7.40;99.90;;;;;;5072271;28;20044;-62
2022/12/22 04:49:41;;;;;;;111.63;47.05;;;7.40;99.90;;;;;;5073032;28;20094;-62
2022/12/22 04:52:07;;;;;;;100.57;45.38;;;7.40;99.90;;;;;;5056160;28;20047;-62
2022/12/22 04:54:33;;;;;;;98.47;45.28;;;7.40;99.90;;;;;;5072093;28;20036;-62
2022/12/22 04:56:59;;;;;;;151.20;61.15;;;7.40;99.90;;;;;;5073871;28;20032;-63
2022/12/22 04:59:25;;;;;;;108.97;48.35;;;7.40;99.90;;;;;;5055988;28;20028;-62
2022/12/22 05:01:50;;;;;;;119.53;52.42;;;7.40;99.90;;;;;;5071766;28;20040;-62
2022/12/22 05:04:16;;;;;;;166.63;49.05;;;7.40;99.90;;;;;;5073771;28;20048;-62
2022/12/22 05:06:42;;;;;;;167.60;52.92;;;7.30;99.90;;;;;;5072832;28;20036;-62
2022/12/22 05:09:09;;;;;;;116.82;44.80;;;7.30;99.90;;;;;;5072821;28;20064;-62
2022/12/22 05:11:35;;;;;;;167.07;58.03;;;7.20;99.90;;;;;;5072897;28;20494;-62
2022/12/22 05:14:00;;;;;;;155.07;59.40;;;7.10;99.90;;;;;;5072342;28;20032;-62
2022/12/22 05:16:26;;;;;;;185.88;67.93;;;7.10;99.90;;;;;;5072854;28;20040;-63
2022/12/22 05:18:51;;;;;;;101.85;46.95;;;7.00;99.90;;;;;;5072096;28;20117;-62
2022/12/22 05:21:19;;;;;;;180.70;51.70;;;7.00;99.90;;;;;;5073360;28;20040;-62
2022/12/22 05:23:46;;;;;;;112.85;44.92;;;6.80;99.90;;;;;;5072524;28;20044;-62
2022/12/22 05:26:13;;;;;;;156.05;58.72;;;6.80;99.90;;;;;;5055452;28;20075;-62
2022/12/22 05:28:40;;;;;;;172.27;67.93;;;6.80;99.90;;;;;;5072857;28;20084;-62
2022/12/22 05:31:07;;;;;;;127.70;47.83;;;6.80;99.90;;;;;;5071754;28;20086;-62
2022/12/22 05:33:33;;;;;;;139.57;49.33;;;6.70;99.90;;;;;;5055387;28;20072;-62
2022/12/22 05:35:59;;;;;;;153.30;55.10;;;6.70;99.90;;;;;;5054026;28;20068;-62
2022/12/22 05:38:25;;;;;;;100.03;45.28;;;6.60;99.90;;;;;;5073112;28;20642;-62
2022/12/22 05:40:50;;;;;;;82.88;37.90;;;6.60;99.90;;;;;;5073346;28;20528;-62
2022/12/22 05:43:16;;;;;;;105.75;40.70;;;6.60;99.90;;;;;;5070904;28;20371;-62
2022/12/22 05:45:45;;;;;;;113.85;43.60;;;6.70;99.90;;;;;;5073043;28;20401;-62
2022/12/22 05:48:10;;;;;;;87.82;33.60;;;6.70;99.90;;;;;;5055151;28;20032;-62
2022/12/22 05:50:36;;;;;;;146.38;45.38;;;6.70;99.90;;;;;;5072453;28;20036;-62
2022/12/22 05:53:03;;;;;;;132.98;43.58;;;6.80;99.90;;;;;;5072634;28;20539;-62
2022/12/22 05:55:29;;;;;;;176.40;47.20;;;6.80;99.90;;;;;;5073077;28;20123;-62
2022/12/22 05:57:54;;;;;;;134.35;41.05;;;6.80;99.90;;;;;;5071048;28;20048;-62
2022/12/22 06:00:20;;;;;;;206.43;49.67;;;6.90;99.90;;;;;;5055100;28;20044;-62
2022/12/22 06:02:46;;;;;;;190.80;54.08;;;6.90;99.90;;;;;;5072715;28;20041;-62
2022/12/22 06:05:13;;;;;;;201.02;53.53;;;6.90;99.90;;;;;;5070660;28;20051;-62
2022/12/22 06:07:40;;;;;;;121.97;38.22;;;6.90;99.90;;;;;;5055096;28;20052;-62
2022/12/22 06:10:09;;;;;;;124.07;37.25;;;6.90;99.90;;;;;;5071164;28;20055;-62
2022/12/22 06:12:35;;;;;;;187.32;51.28;;;6.90;99.90;;;;;;5037610;28;20508;-62
2022/12/22 06:15:00;;;;;;;97.53;35.45;;;6.80;99.90;;;;;;5071160;28;20079;-62
2022/12/22 06:17:26;;;;;;;228.20;57.50;;;6.90;99.90;;;;;;5072348;28;20043;-62
2022/12/22 06:19:51;;;;;;;133.10;41.67;;;6.80;99.90;;;;;;5053719;28;20158;-62
2022/12/22 06:22:17;;;;;;;177.00;43.58;;;6.80;99.90;;;;;;5072277;28;20132;-62
2022/12/22 06:24:43;;;;;;;150.77;44.78;;;6.80;99.90;;;;;;5071635;28;20052;-62
2022/12/22 06:27:09;;;;;;;180.27;48.63;;;6.80;99.90;;;;;;5054398;28;20048;-62
2022/12/22 06:29:35;;;;;;;202.93;45.10;;;6.80;99.90;;;;;;5054664;28;20052;-62
2022/12/22 06:32:01;;;;;;;169.55;40.72;;;6.80;99.90;;;;;;5071249;28;20366;-62
2022/12/22 06:34:27;;;;;;;192.60;47.38;;;6.70;99.90;;;;;;5070763;28;20043;-62
2022/12/22 06:36:53;;;;;;;246.50;54.55;;;6.80;99.90;;;;;;5070816;28;20437;-62
2022/12/22 06:39:20;;;;;;;197.75;44.13;;;6.80;99.90;;;;;;5062082;28;20475;-63
2022/12/22 06:44:30;;;;;;;125.00;33.13;;;6.80;99.90;;;;;;5054240;28;20052;-62
2022/12/22 06:46:55;;;;;;;100.90;26.25;;;6.70;99.90;;;;;;5069760;28;20105;-62
2022/12/22 06:49:21;;;;;;;108.05;29.25;;;6.70;99.90;;;;;;5070710;28;20381;-62
2022/12/22 06:51:47;;;;;;;107.88;29.73;;;6.70;99.90;;;;;;5054225;28;20036;-62
2022/12/22 06:54:13;;;;;;;106.30;29.42;;;6.60;99.90;;;;;;5070217;28;20089;-62
2022/12/22 06:56:39;;;;;;;115.38;26.83;;;6.60;99.90;;;;;;5054624;28;20029;-62
2022/12/22 06:59:04;;;;;;;210.32;44.28;;;6.60;99.90;;;;;;5053897;28;20120;-62
2022/12/22 07:01:30;;;;;;;95.20;25.10;;;6.60;99.90;;;;;;5053208;28;20045;-62
2022/12/22 07:03:56;;;;;;;126.55;31.70;;;6.50;99.90;;;;;;5053794;28;20040;-62
2022/12/22 07:06:22;;;;;;;98.93;27.00;;;6.50;99.90;;;;;;5053844;28;20455;-62
2022/12/22 07:08:48;;;;;;;111.80;29.90;;;6.40;99.90;;;;;;5053352;28;20497;-62
2022/12/22 07:11:14;;;;;;;91.72;23.88;;;6.40;99.90;;;;;;5072074;28;20079;-62
2022/12/22 07:13:40;;;;;;;123.97;31.00;;;6.40;99.90;;;;;;5054357;28;20036;-62
2022/12/22 07:16:08;;;;;;;166.55;38.47;;;6.30;99.90;;;;;;5052747;28;20197;-62
2022/12/22 07:18:36;;;;;;;76.75;22.45;;;6.40;99.90;;;;;;5072190;28;20052;-62
2022/12/22 07:21:04;;;;;;;96.18;24.92;;;6.30;99.90;;;;;;5069629;28;20043;-62
2022/12/22 07:23:30;;;;;;;115.35;29.77;;;6.30;99.90;;;;;;5053701;28;20044;-62
2022/12/22 07:25:56;;;;;;;103.50;22.85;;;6.30;99.90;;;;;;5054025;28;20123;-62
2022/12/22 07:28:22;;;;;;;130.10;30.60;;;6.20;99.90;;;;;;5052999;28;20056;-62
2022/12/22 07:30:49;;;;;;;107.30;23.52;;;6.20;99.90;;;;;;5054062;28;20040;-62
2022/12/22 07:33:15;;;;;;;105.15;21.83;;;6.10;99.90;;;;;;5071737;28;20037;-62
2022/12/22 07:35:41;;;;;;;119.57;27.70;;;6.10;99.90;;;;;;5069704;28;20115;-61
2022/12/22 07:38:06;;;;;;;98.38;23.13;;;6.10;99.90;;;;;;5068184;28;20044;-62
2022/12/22 07:40:32;;;;;;;81.53;19.48;;;6.10;99.90;;;;;;5037066;28;20031;-62
2022/12/22 07:42:59;;;;;;;61.30;17.08;;;6.10;99.90;;;;;;5069444;28;20037;-62
2022/12/22 07:45:26;;;;;;;78.75;23.30;;;6.10;99.90;;;;;;5068315;28;20080;-62
2022/12/22 07:47:51;;;;;;;82.20;20.85;;;6.10;99.90;;;;;;5054926;28;20086;-62
2022/12/22 07:50:26;;;;;;;91.00;22.10;;;6.10;99.90;;;;;;5067846;28;20427;-62
2022/12/22 07:52:52;;;;;;;;;;;6.00;99.90;;;;;;5031294;28;20049;-62
2022/12/22 07:55:19;;;;;;;51.00;15.30;;;6.00;99.90;;;;;;5055332;28;19923;-62
2022/12/22 07:57:45;;;;;;;85.97;22.48;;;5.90;99.90;;;;;;5049970;28;20115;-62
2022/12/22 08:00:12;;;;;;;81.47;22.90;;;5.90;99.90;;;;;;5053964;28;20123;-62
2022/12/22 08:02:38;;;;;;;70.97;19.90;;;5.90;99.90;;;;;;5056840;28;20044;-61
2022/12/22 08:05:04;;;;;;;42.95;13.93;;;5.90;99.90;;;;;;5070460;28;20043;-61
2022/12/22 08:07:31;;;;;;;46.78;13.23;;;5.80;99.90;;;;;;5072495;28;20040;-62
2022/12/22 08:09:57;;;;;;;65.50;16.20;;;5.80;99.90;;;;;;5072383;28;20067;-62
2022/12/22 08:12:23;;;;;;;53.17;13.40;;;5.80;99.90;;;;;;5071889;28;20040;-62
2022/12/22 08:14:48;;;;;;;41.15;14.02;;;5.70;99.90;;;;;;5054402;28;20370;-62
2022/12/22 08:17:14;;;;;;;50.63;15.90;;;5.70;99.90;;;;;;5057549;28;20039;-62
2022/12/22 08:19:40;;;;;;;43.53;14.50;;;5.70;99.90;;;;;;5063209;28;20048;-62
2022/12/22 08:22:05;;;;;;;25.95;11.57;;;5.60;99.90;;;;;;5070892;28;20046;-62
2022/12/22 08:24:31;;;;;;;71.07;19.27;;;5.60;99.90;;;;;;5052920;28;20469;-62
2022/12/22 08:27:01;;;;;;;43.75;14.20;;;5.60;99.90;;;;;;5071626;28;20455;-62
2022/12/22 08:29:34;;;;;;;44.63;14.68;;;5.60;99.90;;;;;;5053698;28;20090;-62
2022/12/22 08:32:00;;;;;;;35.95;11.23;;;5.60;99.90;;;;;;5052797;28;20039;-62
2022/12/22 08:34:26;;;;;;;43.10;13.25;;;5.50;99.90;;;;;;5036947;28;20048;-62
2022/12/22 08:36:55;;;;;;;30.55;10.27;;;5.50;99.90;;;;;;5069636;28;20085;-62
2022/12/22 08:39:22;;;;;;;33.83;11.95;;;5.50;99.90;;;;;;5052059;28;20504;-62
2022/12/22 08:41:51;;;;;;;34.03;11.73;;;5.40;99.90;;;;;;5067052;28;20464;-62
2022/12/22 08:44:20;;;;;;;21.80;8.07;;;5.40;99.90;;;;;;5053202;28;20113;-62
2022/12/22 08:46:46;;;;;;;31.23;10.05;;;5.30;99.90;;;;;;5069325;28;20501;-62
2022/12/22 08:49:12;;;;;;;29.48;10.55;;;5.40;99.90;;;;;;5070697;28;20060;-62
2022/12/22 08:51:37;;;;;;;39.00;12.38;;;5.30;99.90;;;;;;5054134;28;20059;-62
2022/12/22 08:54:03;;;;;;;28.02;10.65;;;5.30;99.90;;;;;;5052004;28;20033;-62
2022/12/22 08:56:30;;;;;;;23.05;10.30;;;5.40;99.90;;;;;;5071382;28;20128;-62
2022/12/22 08:58:55;;;;;;;23.73;10.15;;;5.40;99.90;;;;;;5064083;28;20033;-62
2022/12/22 09:01:22;;;;;;;29.02;12.30;;;5.30;99.90;;;;;;5038073;28;20044;-62
2022/12/22 09:03:52;;;;;;;38.75;11.75;;;5.30;99.90;;;;;;5070583;28;20477;-62
2022/12/22 09:06:21;;;;;;;32.15;12.73;;;5.30;99.90;;;;;;5069539;28;20036;-62
2022/12/22 09:08:47;;;;;;;27.17;10.18;;;5.40;99.90;;;;;;5052256;28;20045;-62
2022/12/22 09:11:15;;;;;;;18.58;9.50;;;5.40;99.90;;;;;;5034115;28;20037;-62
2022/12/22 09:13:41;;;;;;;25.63;11.40;;;5.40;99.90;;;;;;5052164;28;20489;-62
2022/12/22 09:16:08;;;;;;;31.25;11.63;;;5.40;99.90;;;;;;5060565;28;20040;-62
2022/12/22 09:18:34;;;;;;;23.08;9.52;;;5.40;99.90;;;;;;5060319;28;20082;-62
2022/12/22 09:20:59;;;;;;;16.65;8.43;;;5.40;99.90;;;;;;5056516;28;20401;-62
2022/12/22 09:23:26;;;;;;;20.90;9.73;;;5.50;99.90;;;;;;5052171;28;20037;-62
2022/12/22 09:25:52;;;;;;;19.70;9.45;;;5.50;99.90;;;;;;5067293;28;20067;-61
2022/12/22 09:28:17;;;;;;;24.92;10.27;;;5.60;99.90;;;;;;5035826;28;20044;-62
2022/12/22 09:30:52;;;;;;;19.63;9.70;;;5.50;99.90;;;;;;5053091;28;20048;-62
2022/12/22 09:33:19;;;;;;;15.75;8.23;;;5.60;99.90;;;;;;5036236;28;20047;-62
2022/12/22 09:35:45;;;;;;;25.20;10.30;;;5.60;99.90;;;;;;5069812;28;20044;-63
2022/12/22 09:38:12;;;;;;;19.45;9.98;;;5.60;99.90;;;;;;5036938;28;20036;-63
2022/12/22 09:40:38;;;;;;;14.73;7.57;;;5.80;99.90;;;;;;5047445;28;20037;-63
2022/12/22 09:43:04;;;;;;;19.30;9.02;;;5.80;99.90;;;;;;5068274;28;20048;-62
2022/12/22 09:45:32;;;;;;;15.40;8.32;;;5.90;99.90;;;;;;5059671;28;20045;-63
2022/12/22 09:48:00;;;;;;;19.73;9.20;;;5.90;99.90;;;;;;5051168;28;20524;-62
2022/12/22 09:50:27;;;;;;;19.38;8.98;;;6.00;99.90;;;;;;5050372;28;20506;-63
2022/12/22 09:53:05;;;;;;;15.52;8.15;;;6.00;99.90;;;;;;5052317;28;20043;-63
2022/12/22 09:55:43;;;;;;;18.00;8.05;;;6.10;99.90;;;;;;5036169;28;20347;-62
2022/12/22 09:58:24;;;;;;;17.80;8.38;;;6.20;99.90;;;;;;5052513;28;20047;-62
2022/12/22 10:01:05;;;;;;;16.13;8.00;;;6.20;99.90;;;;;;5052489;28;20033;-63
2022/12/22 10:03:54;;;;;;;14.65;7.78;;;6.20;99.90;;;;;;5051979;28;20044;-62
2022/12/22 10:06:33;;;;;;;13.10;7.57;;;6.30;99.90;;;;;;5050759;28;20081;-62
2022/12/22 10:09:19;;;;;;;10.40;6.65;;;6.40;99.90;;;;;;5057968;28;20134;-61
2022/12/22 10:11:56;;;;;;;16.20;7.75;;;6.50;99.90;;;;;;5070358;28;20044;-62
2022/12/22 10:14:40;;;;;;;13.88;7.88;;;6.50;99.90;;;;;;5057862;28;20089;-63
2022/12/22 10:17:21;;;;;;;15.77;7.40;;;6.60;99.90;;;;;;5053375;28;20037;-62
2022/12/22 10:19:49;;;;;;;16.55;7.97;;;6.60;99.90;;;;;;5072286;28;20043;-62
2022/12/22 10:22:26;;;;;;;15.38;7.00;;;6.70;99.90;;;;;;5071475;28;20045;-62
2022/12/22 10:24:53;;;;;;;16.10;6.90;;;6.60;99.90;;;;;;5052513;28;20123;-64
2022/12/22 10:27:21;;;;;;;17.23;7.03;;;6.60;99.90;;;;;;5052858;28;20037;-62
2022/12/22 10:29:47;;;;;;;12.63;6.25;;;6.70;99.90;;;;;;5069924;28;20063;-62
2022/12/22 10:32:19;;;;;;;13.73;5.38;;;6.80;99.90;;;;;;5071077;28;20458;-60
2022/12/22 10:35:14;;;;;;;12.52;5.60;;;6.90;99.90;;;;;;5054524;28;20051;-61
2022/12/22 10:37:40;;;;;;;12.53;4.43;;;6.90;99.90;;;;;;5041828;28;20072;-61
2022/12/22 10:40:14;;;;;;;9.70;3.97;;;7.00;99.90;;;;;;5053493;28;20283;-61
2022/12/22 10:42:49;;;;;;;10.18;4.20;;;7.00;99.90;;;;;;5054676;28;20044;-61
2022/12/22 10:45:22;;;;;;;10.90;4.70;;;7.00;99.90;;;;;;5053362;28;20079;-61
2022/12/22 10:47:51;;;;;;;11.00;4.03;;;7.10;99.90;;;;;;5054159;28;20040;-61
2022/12/22 10:50:18;;;;;;;11.43;3.70;;;7.10;99.90;;;;;;5054108;28;20371;-61
2022/12/22 10:52:56;;;;;;;12.48;4.30;;;7.20;99.90;;;;;;5070929;28;20044;-61
2022/12/22 10:55:28;;;;;;;12.52;5.22;;;7.30;99.90;;;;;;5071915;28;20098;-62
2022/12/22 10:58:27;;;;;;;8.80;4.53;;;7.30;99.90;;;;;;5054130;28;20041;-62
2022/12/22 11:01:03;;;;;;;10.60;3.67;;;7.40;99.90;;;;;;5020718;28;20516;-61
2022/12/22 11:03:30;;;;;;;18.10;4.95;;;7.40;99.90;;;;;;5072104;28;20044;-61
2022/12/22 11:05:57;;;;;;;12.93;4.35;;;7.50;99.90;;;;;;5071967;28;20435;-61
2022/12/22 11:08:24;;;;;;;10.43;4.35;;;7.50;99.90;;;;;;5052931;28;20179;-61
2022/12/22 11:10:52;;;;;;;10.23;4.20;;;7.50;99.90;;;;;;5053871;28;20052;-62
2022/12/22 11:13:48;;;;;;;12.50;4.10;;;7.60;99.90;;;;;;5069715;28;20036;-61
2022/12/22 11:16:18;;;;;;;13.85;5.75;;;7.60;99.90;;;;;;5071729;28;20482;-61
2022/12/22 11:19:22;;;;;;;14.48;4.85;;;7.60;99.90;;;;;;5071827;28;20075;-61
2022/12/22 11:21:53;;;;;;;9.48;4.13;;;7.70;99.90;;;;;;5039659;28;20052;-62
2022/12/22 11:24:36;;;;;;;14.90;4.72;;;7.70;99.90;;;;;;5071601;28;20037;-61
2022/12/22 11:27:04;;;;;;;11.13;4.53;;;7.70;99.90;;;;;;5071571;28;20060;-61
2022/12/22 11:30:01;;;;;;;13.38;4.32;;;7.80;99.90;;;;;;5071221;28;20060;-62
2022/12/22 11:32:45;;;;;;;12.82;4.38;;;7.90;99.90;;;;;;5053465;28;20040;-61
2022/12/22 11:35:26;;;;;;;10.60;3.88;;;7.90;99.90;;;;;;5056564;28;20032;-61
2022/12/22 11:38:08;;;;;;;17.15;4.10;;;7.90;99.90;;;;;;5075449;28;20082;-61
2022/12/22 11:40:47;;;;;;;12.13;4.05;;;8.00;99.90;;;;;;5057990;28;20068;-61
2022/12/22 11:43:38;;;;;;;10.30;3.67;;;8.00;99.90;;;;;;5074510;28;20033;-61
2022/12/22 11:46:14;;;;;;;11.38;4.03;;;8.00;99.90;;;;;;5040615;28;20044;-61
2022/12/22 11:49:21;;;;;;;12.98;4.45;;;8.00;99.90;;;;;;5040262;28;20037;-62
2022/12/22 11:52:23;;;;;;;11.38;3.67;;;8.10;99.90;;;;;;5057705;28;20040;-61
2022/12/22 11:55:04;;;;;;;10.63;3.85;;;8.10;99.90;;;;;;5075362;28;20123;-61
2022/12/22 11:57:38;;;;;;;12.00;3.90;;;8.20;99.90;;;;;;5074963;28;20032;-61
2022/12/22 12:00:12;;;;;;;11.82;3.20;;;8.20;99.90;;;;;;5075159;28;20063;-61
2022/12/22 12:02:41;;;;;;;14.52;4.68;;;8.30;99.90;;;;;;5056706;28;20056;-61
2022/12/22 12:05:45;;;;;;;11.50;4.70;;;8.30;99.90;;;;;;5075025;28;20086;-61
2022/12/22 12:08:45;;;;;;;15.55;3.88;;;8.30;99.90;;;;;;5016571;28;20049;-61
2022/12/22 12:11:31;;;;;;;11.00;3.42;;;8.40;99.90;;;;;;5072785;28;20587;-61
2022/12/22 12:14:15;;;;;;;7.57;3.28;;;8.30;99.90;;;;;;5074876;28;20055;-62
2022/12/22 12:16:52;;;;;;;13.07;4.07;;;8.40;99.90;;;;;;5074524;28;20070;-61
2022/12/22 12:19:26;;;;;;;13.70;3.67;;;8.40;99.90;;;;;;5074760;28;20385;-62
2022/12/22 12:21:56;;;;;;;10.27;3.63;;;8.40;99.90;;;;;;5040403;28;20044;-61
2022/12/22 12:24:40;;;;;;;9.70;3.20;;;8.40;99.90;;;;;;5055900;28;20036;-61
2022/12/22 12:27:26;;;;;;;10.85;3.38;;;8.30;99.90;;;;;;5056466;28;20056;-61
2022/12/22 12:30:09;;;;;;;;;;;8.30;99.90;;;;;;5075224;28;20370;-61
2022/12/22 12:32:54;;;;;;;9.43;4.35;;;8.20;99.90;;;;;;5073973;28;19931;-61
2022/12/22 12:35:45;;;;;;;13.60;3.10;;;8.20;99.90;;;;;;5074589;28;20036;-61
2022/12/22 12:38:31;;;;;;;11.98;4.05;;;8.10;99.90;;;;;;5073546;28;20032;-61
2022/12/22 12:41:14;;;;;;;11.77;3.70;;;8.20;99.90;;;;;;5042860;28;20093;-61
2022/12/22 12:43:41;;;;;;;12.93;3.75;;;8.10;99.90;;;;;;5056742;28;20044;-62
2022/12/22 12:46:40;;;;;;;13.25;3.58;;;8.10;99.90;;;;;;5055620;28;20501;-62
2022/12/22 12:49:34;;;;;;;17.38;5.05;;;8.10;99.90;;;;;;5072991;28;20079;-61
2022/12/22 12:52:10;;;;;;;16.10;4.43;;;8.10;99.90;;;;;;5055377;28;20050;-61
2022/12/22 12:54:46;;;;;;;11.55;3.65;;;8.10;99.90;;;;;;5039863;28;20043;-61
2022/12/22 12:57:29;;;;;;;12.73;4.07;;;8.20;99.90;;;;;;5074135;28;20044;-61
2022/12/22 12:59:58;;;;;;;14.43;4.32;;;8.20;99.90;;;;;;5038647;28;20076;-61
2022/12/22 13:02:27;;;;;;;11.77;3.35;;;8.20;99.90;;;;;;5074041;28;20045;-61
2022/12/22 13:05:14;;;;;;;10.48;3.22;;;8.20;99.90;;;;;;5073934;28;20069;-61
2022/12/22 13:08:05;;;;;;;12.40;3.30;;;8.30;99.90;;;;;;5055608;28;20127;-61
2022/12/22 13:10:37;;;;;;;11.50;4.05;;;8.30;99.90;;;;;;5073951;28;20048;-62
2022/12/22 13:13:03;;;;;;;8.70;3.42;;;8.30;99.90;;;;;;5073109;28;20477;-61
2022/12/22 13:15:33;;;;;;;15.50;4.32;;;8.30;99.90;;;;;;5074031;28;20040;-61
2022/12/22 13:18:01;;;;;;;11.38;3.92;;;8.30;99.90;;;;;;5055739;28;20047;-61
2022/12/22 13:20:32;;;;;;;10.77;3.72;;;8.30;99.90;;;;;;5072781;28;20041;-61
2022/12/22 13:23:00;;;;;;;10.73;3.85;;;8.30;99.90;;;;;;5073393;28;20068;-61
2022/12/22 13:25:44;;;;;;;13.65;3.75;;;8.30;99.90;;;;;;5072078;28;20093;-61
2022/12/22 13:28:22;;;;;;;21.52;4.72;;;8.30;99.90;;;;;;5055161;28;20607;-61
2022/12/22 13:30:59;;;;;;;12.75;3.60;;;8.30;99.90;;;;;;5071582;28;20036;-62
2022/12/22 13:33:29;;;;;;;19.52;4.15;;;8.30;99.90;;;;;;5054804;28;20048;-63
2022/12/22 13:35:57;;;;;;;15.23;4.13;;;8.40;99.90;;;;;;5054934;28;20040;-62
2022/12/22 13:38:35;;;;;;;13.13;3.08;;;8.40;99.90;;;;;;5073248;28;20362;-62
2022/12/22 13:41:23;;;;;;;13.93;3.30;;;8.40;99.90;;;;;;5062235;28;21178;-62
2022/12/22 13:43:57;;;;;;;15.10;4.13;;;8.40;99.90;;;;;;5058930;28;20099;-61
2022/12/22 13:46:23;;;;;;;15.23;3.47;;;8.40;99.90;;;;;;5039608;28;20561;-61
2022/12/22 13:48:53;;;;;;;13.55;3.17;;;8.40;99.90;;;;;;5051402;28;20055;-62
2022/12/22 13:51:26;;;;;;;11.93;2.63;;;8.40;99.90;;;;;;5053135;28;20044;-61
2022/12/22 13:53:56;;;;;;;11.82;2.88;;;8.40;99.90;;;;;;5069948;28;20032;-61
2022/12/22 13:56:26;;;;;;;10.43;2.80;;;8.40;99.90;;;;;;5068287;28;20060;-61
2022/12/22 13:58:58;;;;;;;9.85;3.08;;;8.40;99.90;;;;;;5056277;28;20090;-61
2022/12/22 14:01:24;;;;;;;16.67;3.17;;;8.40;99.90;;;;;;5051354;28;20032;-61
2022/12/22 14:03:56;;;;;;;14.95;2.97;;;8.50;99.90;;;;;;5068603;28;20048;-61
2022/12/22 14:06:31;;;;;;;14.90;3.72;;;8.50;99.90;;;;;;5051859;28;20536;-62
2022/12/22 14:09:10;;;;;;;10.82;2.45;;;8.50;99.90;;;;;;5050910;28;20090;-62
2022/12/22 14:11:36;;;;;;;8.50;2.50;;;8.50;99.90;;;;;;5070239;28;20052;-62
2022/12/22 14:14:09;;;;;;;14.10;3.05;;;8.50;99.90;;;;;;5070012;28;20036;-62
2022/12/22 14:16:45;;;;;;;12.48;3.17;;;8.50;99.90;;;;;;5051370;28;20044;-61
2022/12/22 14:19:18;;;;;;;9.82;3.83;;;8.60;99.90;;;;;;5052051;28;20052;-62
2022/12/22 14:21:49;;;;;;;15.25;3.72;;;8.60;99.90;;;;;;5051823;28;20040;-62
2022/12/22 14:24:23;;;;;;;13.50;4.20;;;8.60;99.90;;;;;;5051547;28;20148;-62
2022/12/22 14:26:51;;;;;;;11.52;2.72;;;8.60;99.90;;;;;;5031951;28;20065;-62
2022/12/22 14:29:21;;;;;;;17.15;3.45;;;8.60;99.90;;;;;;5011884;28;20148;-62
2022/12/22 14:32:05;;;;;;;14.35;3.60;;;8.60;99.90;;;;;;5027401;28;20383;-61
2022/12/22 14:34:33;;;;;;;35.15;15.05;;;8.60;99.90;;;;;;5029587;28;20487;-62
2022/12/22 14:37:00;;;;;;;13.98;6.60;;;8.50;99.90;;;;;;5028142;28;20480;-62
2022/12/22 14:39:31;;;;;;;11.73;3.58;;;8.60;99.90;;;;;;5000499;28;20057;-62
2022/12/22 14:42:10;;;;;;;13.15;3.35;;;8.50;99.90;;;;;;5022272;28;20509;-61
2022/12/22 14:44:43;;;;;;;11.85;3.38;;;8.50;99.90;;;;;;5027337;28;20049;-62
2022/12/22 14:47:10;;;;;;;15.60;2.70;;;8.50;99.90;;;;;;5026513;28;20073;-61
2022/12/22 14:49:54;;;;;;;9.23;2.70;;;8.50;99.90;;;;;;5027499;28;20053;-62
2022/12/22 14:52:34;;;;;;;13.02;3.25;;;8.50;99.90;;;;;;5026006;28;20518;-61
2022/12/22 14:55:01;;;;;;;8.70;2.38;;;8.40;99.90;;;;;;5027097;28;20053;-62
2022/12/22 14:57:34;;;;;;;10.85;2.67;;;8.40;99.90;;;;;;5027036;28;20845;-61
2022/12/22 15:00:06;;;;;;;12.50;2.65;;;8.40;99.90;;;;;;5025867;28;20091;-61
2022/12/22 15:02:38;;;;;;;11.23;2.28;;;8.40;99.90;;;;;;5029440;28;20465;-62
2022/12/22 15:05:27;;;;;;;12.02;4.00;;;8.30;99.90;;;;;;5027145;28;20041;-61
2022/12/22 15:07:55;;;;;;;10.80;4.00;;;8.30;99.90;;;;;;5028198;28;20128;-61
2022/12/22 15:10:23;;;;;;;12.15;3.22;;;8.30;99.90;;;;;;5029253;28;20053;-61
2022/12/22 15:12:52;;;;;;;10.15;2.65;;;8.20;99.90;;;;;;5027630;28;20037;-61
2022/12/22 15:15:19;;;;;;;9.35;3.17;;;8.20;99.90;;;;;;5028245;28;20513;-61
2022/12/22 15:17:48;;;;;;;11.27;2.72;;;8.10;99.90;;;;;;5028183;28;20053;-61
2022/12/22 15:20:17;;;;;;;9.48;2.97;;;8.10;99.90;;;;;;5026289;28;20546;-61
2022/12/22 15:22:43;;;;;;;11.30;2.63;;;8.10;99.90;;;;;;5022751;28;20495;-62
2022/12/22 15:25:15;;;;;;;10.32;3.22;;;8.00;99.90;;;;;;5023376;28;20044;-61
2022/12/22 15:27:40;;;;;;;18.85;3.30;;;8.00;99.90;;;;;;5033278;28;20131;-62
2022/12/22 15:30:07;;;;;;;10.23;2.78;;;8.00;99.90;;;;;;5068138;28;20454;-61
2022/12/22 15:32:33;;;;;;;10.48;3.47;;;8.00;99.90;;;;;;5068086;28;20123;-62
2022/12/22 15:35:02;;;;;;;8.85;3.17;;;8.00;99.90;;;;;;5067642;28;20124;-61
2022/12/22 15:37:28;;;;;;;12.02;4.30;;;7.90;99.90;;;;;;5050308;28;20040;-61
2022/12/22 15:39:54;;;;;;;11.60;3.92;;;7.90;99.90;;;;;;5050898;28;20095;-62
2022/12/22 15:42:20;;;;;;;13.38;4.35;;;7.90;99.90;;;;;;5047835;28;20088;-61
2022/12/22 15:44:45;;;;;;;10.45;5.32;;;7.80;99.90;;;;;;5064861;28;20496;-61
2022/12/22 15:47:11;;;;;;;12.32;6.20;;;7.90;99.90;;;;;;5068884;28;20048;-61
2022/12/22 15:49:38;;;;;;;14.35;7.32;;;7.80;99.90;;;;;;5056230;28;20052;-61
2022/12/22 15:52:05;;;;;;;15.63;9.25;;;7.80;99.90;;;;;;5067408;28;20041;-61
2022/12/22 15:54:32;;;;;;;17.67;9.93;;;7.80;99.90;;;;;;5050281;28;20075;-62
2022/12/22 15:56:59;;;;;;;20.55;11.27;;;7.80;99.90;;;;;;5050388;28;20087;-61
2022/12/22 15:59:27;;;;;;;20.38;12.80;;;7.70;99.90;;;;;;5050667;28;20037;-61
2022/12/22 16:01:55;;;;;;;19.70;12.45;;;7.70;99.90;;;;;;5050509;28;20076;-61
2022/12/22 16:04:22;;;;;;;17.35;10.57;;;7.70;99.90;;;;;;5051146;28;20044;-61
2022/12/22 16:06:49;;;;;;;20.15;11.48;;;7.70;99.90;;;;;;5050421;28;20079;-62
2022/12/22 16:09:24;;;;;;;19.83;10.45;;;7.60;99.90;;;;;;5049365;28;20131;-61
2022/12/22 16:11:50;;;;;;;17.33;10.30;;;7.60;99.90;;;;;;5047218;28;20041;-62
2022/12/22 16:14:19;;;;;;;19.98;9.68;;;7.60;99.90;;;;;;5037753;28;20046;-63
2022/12/22 16:16:47;;;;;;;17.08;11.05;;;7.60;99.90;;;;;;5048820;28;20039;-62
2022/12/22 16:19:15;;;;;;;18.00;9.75;;;7.50;99.90;;;;;;5061195;28;20062;-62
2022/12/22 16:21:44;;;;;;;19.33;11.05;;;7.50;99.90;;;;;;5039269;28;20044;-62
2022/12/22 16:24:33;;;;;;;18.73;11.73;;;7.50;99.90;;;;;;5070785;28;20045;-62
2022/12/22 16:27:00;;;;;;;21.67;11.60;;;7.40;99.90;;;;;;5071441;28;20048;-62
2022/12/22 16:29:26;;;;;;;20.90;11.65;;;7.40;99.90;;;;;;5073058;28;20497;-62
2022/12/22 16:31:52;;;;;;;20.08;11.45;;;7.30;99.90;;;;;;5070529;28;20094;-62
2022/12/22 16:34:18;;;;;;;22.33;11.00;;;7.30;99.90;;;;;;5069508;28;20090;-62